Time;durP1;ratioP1;P1;durP2;ratioP2;P2;SDS_P1;SDS_P2;PMS_P1;PMS_P2;Temp;Humidity;BMP_temperature;BMP_pressure;BME280_temperature;BME280_humidity;BME280_pressure;Samples;Min_cycle;Max_cycle;Signal;HPM_P1;HPM_P2
2023/08/22 00:00:31;;;;;;;25.20;21.90;;;;;;;20.88;100.00;97084.52;109511;1289;139207;-91
2023/08/22 00:03:17;;;;;;;24.00;21.60;;;;;;;20.90;100.00;97084.34;109533;1283;22413;-90
2023/08/22 00:05:44;;;;;;;26.50;23.80;;;;;;;20.92;100.00;97078.58;109635;1284;22376;-90
2023/08/22 00:08:10;;;;;;;25.00;22.60;;;;;;;20.91;100.00;97074.60;109534;1284;138828;-91
2023/08/22 00:10:36;;;;;;;25.10;22.50;;;;;;;20.92;100.00;97072.48;109558;1284;22350;-91
2023/08/22 00:13:03;;;;;;;25.90;23.20;;;;;;;20.92;100.00;97067.90;109429;1289;138943;-91
2023/08/22 00:15:29;;;;;;;24.80;22.20;;;;;;;20.92;100.00;97062.45;109615;1284;22206;-91
2023/08/22 00:17:55;;;;;;;25.30;22.80;;;;;;;20.91;100.00;97063.12;109493;1289;22259;-91
2023/08/22 00:20:23;;;;;;;24.10;21.60;;;;;;;20.89;100.00;97068.52;109486;1284;139523;-91
2023/08/22 00:22:49;;;;;;;24.20;21.80;;;;;;;20.86;100.00;97065.05;109516;1289;22210;-91
2023/08/22 00:25:15;;;;;;;23.50;21.10;;;;;;;20.85;100.00;97064.70;109496;1288;139831;-91
2023/08/22 00:27:41;;;;;;;23.30;21.00;;;;;;;20.82;100.00;97063.31;109402;1289;22151;-90
2023/08/22 00:30:07;;;;;;;24.60;22.20;;;;;;;20.80;100.00;97059.38;109528;1289;22422;-91
2023/08/22 00:32:33;;;;;;;24.60;22.20;;;;;;;20.78;100.00;97060.91;109387;1287;138792;-90
2023/08/22 00:34:59;;;;;;;24.30;22.00;;;;;;;20.75;100.00;97061.77;109581;1284;22121;-92
2023/08/22 00:37:26;;;;;;;26.00;23.30;;;;;;;20.74;100.00;97067.52;109389;1287;137784;-91
2023/08/22 00:39:52;;;;;;;25.10;22.80;;;;;;;20.72;100.00;97074.79;109589;1283;22260;-91
2023/08/22 00:42:18;;;;;;;25.00;22.60;;;;;;;20.72;100.00;97072.83;109406;1289;139025;-91
2023/08/22 00:44:44;;;;;;;25.10;22.70;;;;;;;20.72;100.00;97066.50;109513;1283;22223;-91
2023/08/22 00:47:10;;;;;;;24.90;22.30;;;;;;;20.71;100.00;97063.84;109536;1287;22111;-91
2023/08/22 00:49:36;;;;;;;24.30;22.00;;;;;;;20.69;100.00;97062.00;109484;1289;138823;-91
2023/08/22 00:52:02;;;;;;;23.40;21.20;;;;;;;20.66;100.00;97058.88;109562;1284;22334;-91
2023/08/22 00:54:29;;;;;;;24.10;21.80;;;;;;;20.65;100.00;97056.81;109353;1281;138914;-91
2023/08/22 00:56:55;;;;;;;24.50;22.10;;;;;;;20.64;100.00;97059.27;109602;1284;22147;-90
2023/08/22 00:59:24;;;;;;;23.00;20.80;;;;;;;20.64;100.00;97061.54;109383;1283;22324;-90
2023/08/22 01:01:51;;;;;;;24.50;22.00;;;;;;;20.62;100.00;97058.48;109486;1282;138816;-91
2023/08/22 01:04:19;;;;;;;25.00;22.50;;;;;;;20.61;100.00;97056.03;109523;1282;22204;-90
2023/08/22 01:06:47;;;;;;;24.80;22.40;;;;;;;20.59;100.00;97053.05;109443;1289;139163;-90
2023/08/22 01:09:25;;;;;;;24.80;22.50;;;;;;;20.59;100.00;97052.45;109586;1282;22185;-91
2023/08/22 01:11:52;;;;;;;25.20;22.70;;;;;;;20.58;100.00;97050.80;109598;1284;22216;-90
2023/08/22 01:14:20;;;;;;;25.50;23.00;;;;;;;20.57;100.00;97049.57;109411;1276;139291;-91
2023/08/22 01:16:47;;;;;;;26.00;23.30;;;;;;;20.57;100.00;97050.30;109526;1283;23202;-90
2023/08/22 01:19:13;;;;;;;24.90;22.30;;;;;;;20.56;100.00;97046.81;109427;1286;138717;-92
2023/08/22 01:21:52;;;;;;;25.70;22.80;;;;;;;20.56;100.00;97042.43;109589;1284;22266;-91
2023/08/22 01:24:19;;;;;;;25.80;23.10;;;;;;;20.56;100.00;97043.41;109403;1287;139362;-90
2023/08/22 01:26:46;;;;;;;25.80;23.20;;;;;;;20.54;100.00;97039.10;109577;1283;22865;-91
2023/08/22 01:29:50;;;;;;;26.30;22.90;;;;;;;20.53;100.00;97031.21;109529;1289;22215;-91
2023/08/22 01:32:21;;;;;;;25.50;22.80;;;;;;;20.50;100.00;97025.71;109468;1284;139420;-91
2023/08/22 01:34:47;;;;;;;24.50;21.90;;;;;;;20.49;100.00;97021.58;109544;1283;22767;-91
2023/08/22 01:37:13;;;;;;;22.70;20.60;;;;;;;20.46;100.00;97017.41;109487;1285;138199;-91
2023/08/22 01:39:39;;;;;;;25.20;22.10;;;;;;;20.44;100.00;97016.84;109525;1289;22206;-90
2023/08/22 01:42:05;;;;;;;24.40;20.90;;;;;;;20.43;100.00;97012.27;109523;1286;22258;-91
2023/08/22 01:44:31;;;;;;;24.70;22.40;;;;;;;20.43;100.00;97007.89;109477;1283;138803;-91
2023/08/22 01:46:57;;;;;;;23.40;21.00;;;;;;;20.42;100.00;97006.11;109464;1289;22677;-91
2023/08/22 01:49:23;;;;;;;24.00;21.80;;;;;;;20.41;100.00;97008.11;109445;1286;138872;-91
2023/08/22 01:51:49;;;;;;;26.00;22.40;;;;;;;20.40;100.00;97003.85;109433;1289;23132;-91
2023/08/22 01:54:15;;;;;;;29.20;21.90;;;;;;;20.41;100.00;97008.52;109502;1287;138996;-90
2023/08/22 01:56:41;;;;;;;24.50;22.30;;;;;;;20.43;100.00;97013.64;109541;1287;22271;-91
2023/08/22 01:59:07;;;;;;;25.50;23.10;;;;;;;20.43;100.00;97018.20;109660;1289;22896;-90
2023/08/22 02:01:33;;;;;;;23.60;21.40;;;;;;;20.41;100.00;97018.38;109416;1284;139164;-91
2023/08/22 02:04:03;;;;;;;25.50;22.90;;;;;;;20.38;100.00;97019.75;109586;1287;22976;-91
2023/08/22 02:06:31;;;;;;;25.70;22.80;;;;;;;20.38;100.00;97019.38;109284;1285;139011;-91
2023/08/22 02:08:57;;;;;;;25.50;22.90;;;;;;;20.39;100.00;97018.65;109551;1285;22789;-91
2023/08/22 02:11:23;;;;;;;23.90;21.40;;;;;;;20.37;100.00;97019.73;109505;1289;22596;-91
2023/08/22 02:13:49;;;;;;;25.20;22.50;;;;;;;20.36;100.00;97021.82;109473;1283;138939;-90
2023/08/22 02:16:15;;;;;;;25.20;22.70;;;;;;;20.37;100.00;97020.35;109429;1289;22381;-90
2023/08/22 02:18:42;;;;;;;26.70;24.20;;;;;;;20.35;100.00;97019.16;109451;1290;139214;-91
2023/08/22 02:21:08;;;;;;;25.30;22.60;;;;;;;20.35;100.00;97017.98;109396;1291;22209;-91
2023/08/22 02:23:34;;;;;;;25.40;22.80;;;;;;;20.36;100.00;97018.64;109404;1290;22269;-91
2023/08/22 02:26:00;;;;;;;23.00;20.70;;;;;;;20.35;100.00;97024.75;109448;1287;138896;-91
2023/08/22 02:28:26;;;;;;;21.40;19.30;;;;;;;20.34;100.00;97024.11;109527;1287;22263;-91
2023/08/22 02:30:55;;;;;;;22.90;20.70;;;;;;;20.33;100.00;97018.08;109468;1291;139649;-91
2023/08/22 02:33:22;;;;;;;21.80;19.60;;;;;;;20.32;100.00;97028.19;109578;1287;22225;-91
2023/08/22 02:35:48;;;;;;;22.70;20.30;;;;;;;20.33;100.00;97026.68;109562;1287;22240;-91
2023/08/22 02:38:14;;;;;;;23.00;20.50;;;;;;;20.34;100.00;97026.52;109194;1289;139284;-91
2023/08/22 02:40:40;;;;;;;22.20;19.90;;;;;;;20.34;100.00;97024.40;109412;1286;22951;-90
2023/08/22 02:43:06;;;;;;;21.60;19.50;;;;;;;20.33;100.00;97023.43;109426;1289;139003;-91
2023/08/22 02:45:32;;;;;;;23.30;21.20;;;;;;;20.33;100.00;97020.71;109602;1288;22264;-91
2023/08/22 02:47:58;;;;;;;23.30;21.10;;;;;;;20.32;100.00;97019.22;109358;1290;22389;-92
2023/08/22 02:50:24;;;;;;;22.10;20.00;;;;;;;20.32;100.00;97020.08;109453;1289;138849;-91
2023/08/22 02:52:51;;;;;;;23.10;20.70;;;;;;;20.33;100.00;97018.93;109396;1285;22214;-91
2023/08/22 02:55:17;;;;;;;22.40;19.80;;;;;;;20.34;100.00;97019.66;109473;1284;138923;-91
2023/08/22 02:57:44;;;;;;;22.70;20.50;;;;;;;20.35;100.00;97016.73;109073;1284;381342;-91
2023/08/22 03:00:11;;;;;;;22.70;20.50;;;;;;;20.34;100.00;97009.14;109241;1283;139232;-91
2023/08/22 03:02:38;;;;;;;24.60;22.00;;;;;;;20.35;100.00;97005.88;109404;1284;22884;-90
2023/08/22 03:05:07;;;;;;;26.90;22.20;;;;;;;20.36;100.00;97002.29;109366;1284;22210;-91
2023/08/22 03:07:33;;;;;;;24.30;21.70;;;;;;;20.39;100.00;97006.66;109285;1291;137644;-91
2023/08/22 03:09:59;;;;;;;23.50;21.30;;;;;;;20.40;100.00;97010.67;109610;1287;22950;-91
2023/08/22 03:12:25;;;;;;;27.00;24.40;;;;;;;20.43;100.00;97016.29;109260;1291;138814;-91
2023/08/22 03:14:52;;;;;;;24.50;22.10;;;;;;;20.45;100.00;97014.95;109389;1285;23077;-90
2023/08/22 03:17:18;;;;;;;24.10;21.60;;;;;;;20.45;100.00;97011.90;109375;1291;22214;-91
2023/08/22 03:19:44;;;;;;;23.70;21.20;;;;;;;20.46;100.00;97013.08;109293;1283;138843;-91
2023/08/22 03:22:10;;;;;;;24.50;22.10;;;;;;;20.46;100.00;97015.99;109525;1286;22522;-91
2023/08/22 03:24:36;;;;;;;23.10;20.90;;;;;;;20.47;100.00;97016.90;109445;1279;139542;-91
2023/08/22 03:27:03;;;;;;;22.30;20.30;;;;;;;20.47;100.00;97018.54;109399;1286;22287;-91
2023/08/22 03:29:29;;;;;;;24.80;22.40;;;;;;;20.44;100.00;97015.37;109400;1291;22284;-91
2023/08/22 03:31:57;;;;;;;26.10;23.70;;;;;;;20.43;100.00;97014.17;109267;1283;139133;-90
2023/08/22 03:34:23;;;;;;;25.30;22.90;;;;;;;20.43;100.00;97015.65;109376;1287;22399;-92
2023/08/22 03:36:49;;;;;;;23.80;21.70;;;;;;;20.43;100.00;97010.27;109282;1278;139600;-91
2023/08/22 03:39:15;;;;;;;24.90;21.60;;;;;;;20.43;100.00;97012.64;109375;1285;22321;-91
2023/08/22 03:41:41;;;;;;;24.00;21.00;;;;;;;20.43;100.00;97011.21;109410;1283;22182;-91
2023/08/22 03:44:07;;;;;;;23.80;21.50;;;;;;;20.42;100.00;97014.48;109472;1289;139358;-91
2023/08/22 03:46:34;;;;;;;24.80;21.30;;;;;;;20.42;100.00;97015.70;109412;1286;22213;-91
2023/08/22 03:49:00;;;;;;;25.20;22.60;;;;;;;20.44;100.00;97020.58;109282;1284;138698;-91
2023/08/22 03:51:25;;;;;;;25.80;23.10;;;;;;;20.46;100.00;97021.89;109351;1284;22896;-91
2023/08/22 03:53:53;;;;;;;27.20;24.50;;;;;;;20.48;100.00;97024.20;109572;1290;22170;-91
2023/08/22 03:56:19;;;;;;;28.70;25.80;;;;;;;20.49;100.00;97024.55;109300;1291;138778;-91
2023/08/22 03:58:45;;;;;;;27.50;24.00;;;;;;;20.49;100.00;97022.71;109577;1291;22989;-90
2023/08/22 04:01:12;;;;;;;28.70;25.90;;;;;;;20.49;100.00;97016.63;109449;1285;139112;-91
2023/08/22 04:03:38;;;;;;;28.50;25.80;;;;;;;20.49;100.00;97014.71;109383;1287;22323;-91
2023/08/22 04:06:09;;;;;;;27.00;23.50;;;;;;;20.49;100.00;97015.70;109367;1290;22213;-91
2023/08/22 04:08:35;;;;;;;23.10;20.60;;;;;;;20.51;100.00;97021.25;109383;1289;137628;-92
2023/08/22 04:11:01;;;;;;;23.50;21.30;;;;;;;20.50;100.00;97022.96;109499;1286;22865;-92
2023/08/22 04:13:28;;;;;;;22.70;20.20;;;;;;;20.50;100.00;97025.10;109239;1291;138972;-91
2023/08/22 04:15:54;;;;;;;25.00;22.50;;;;;;;20.51;100.00;97027.79;109389;1287;22972;-91
2023/08/22 04:18:20;;;;;;;25.90;22.40;;;;;;;20.53;100.00;97027.90;109221;1291;139365;-91
2023/08/22 04:20:46;;;;;;;26.10;23.40;;;;;;;20.54;100.00;97021.15;109335;1283;22176;-91
2023/08/22 04:23:12;;;;;;;25.30;22.50;;;;;;;20.55;100.00;97016.51;109386;1287;22178;-91
2023/08/22 04:25:38;;;;;;;25.10;22.60;;;;;;;20.55;100.00;97015.04;109450;1291;138794;-92
2023/08/22 04:28:04;;;;;;;24.00;21.80;;;;;;;20.55;100.00;97012.88;109610;1287;22220;-91
2023/08/22 04:30:30;;;;;;;24.20;21.70;;;;;;;20.54;100.00;97008.06;109254;1291;139066;-91
2023/08/22 04:32:57;;;;;;;24.80;22.30;;;;;;;20.54;100.00;97011.33;109413;1291;22248;-91
2023/08/22 04:35:23;;;;;;;24.30;21.80;;;;;;;20.53;100.00;97009.41;109328;1291;22901;-91
2023/08/22 04:37:50;;;;;;;24.00;21.80;;;;;;;20.54;100.00;97008.16;109438;1287;139005;-91
2023/08/22 04:40:16;;;;;;;26.10;23.30;;;;;;;20.53;100.00;97005.94;109488;1291;22251;-91
2023/08/22 04:42:42;;;;;;;25.50;22.80;;;;;;;20.53;100.00;97007.45;109186;1291;139496;-91
2023/08/22 04:45:09;;;;;;;24.50;22.00;;;;;;;20.53;100.00;97008.87;109539;1291;22213;-92
2023/08/22 04:47:35;;;;;;;25.30;22.80;;;;;;;20.54;100.00;97007.80;109384;1283;22212;-91
2023/08/22 04:50:04;;;;;;;24.10;21.70;;;;;;;20.57;100.00;97007.01;109445;1290;138945;-92
2023/08/22 04:52:30;;;;;;;24.00;21.60;;;;;;;20.58;100.00;97008.67;109520;1280;22119;-92
2023/08/22 04:54:57;;;;;;;23.70;21.50;;;;;;;20.58;100.00;97006.08;109261;1287;139216;-91
2023/08/22 04:57:26;;;;;;;22.50;20.30;;;;;;;20.58;100.00;97009.05;109552;1291;22154;-91
2023/08/22 04:59:53;;;;;;;26.50;22.20;;;;;;;20.59;100.00;97009.64;109561;1287;22713;-91
2023/08/22 05:02:21;;;;;;;25.10;22.70;;;;;;;20.60;100.00;97008.07;109421;1290;139958;-91
2023/08/22 05:04:48;;;;;;;24.80;22.30;;;;;;;20.63;100.00;97013.05;109392;1291;22924;-91
2023/08/22 05:07:14;;;;;;;26.70;22.00;;;;;;;20.66;100.00;97010.90;109506;1287;137584;-91
2023/08/22 05:09:40;;;;;;;23.30;21.00;;;;;;;20.69;100.00;97006.59;109355;1287;23129;-91
2023/08/22 05:12:07;;;;;;;23.90;21.60;;;;;;;20.70;100.00;97000.60;109379;1283;22212;-91
2023/08/22 05:14:33;;;;;;;23.20;20.90;;;;;;;20.71;100.00;97007.17;109332;1289;138649;-91
2023/08/22 05:16:59;;;;;;;23.70;21.20;;;;;;;20.73;100.00;97011.06;109370;1286;22237;-91
2023/08/22 05:19:25;;;;;;;23.80;20.80;;;;;;;20.75;100.00;97005.17;109286;1291;138753;-90
2023/08/22 05:21:51;;;;;;;22.60;20.30;;;;;;;20.77;100.00;97003.64;109493;1291;22611;-90
2023/08/22 05:24:17;;;;;;;23.90;21.70;;;;;;;20.80;100.00;97002.39;109459;1291;138892;-91
2023/08/22 05:26:45;;;;;;;25.00;22.60;;;;;;;20.84;100.00;97003.39;109413;1290;23452;-91
2023/08/22 05:29:11;;;;;;;24.90;22.40;;;;;;;20.87;100.00;96999.39;109577;1289;23068;-90
2023/08/22 05:31:37;;;;;;;24.80;22.20;;;;;;;20.90;100.00;96997.86;109270;1286;139548;-91
2023/08/22 05:34:03;;;;;;;24.90;22.40;;;;;;;20.94;100.00;96993.60;109350;1284;22374;-91
2023/08/22 05:36:29;;;;;;;26.30;23.60;;;;;;;20.99;100.00;96994.50;109226;1288;138296;-91
2023/08/22 05:38:55;;;;;;;27.90;25.10;;;;;;;21.04;100.00;96999.89;109538;1286;22256;-91
2023/08/22 05:41:23;;;;;;;26.10;23.40;;;;;;;21.08;100.00;97003.62;109467;1288;22875;-91
2023/08/22 05:43:49;;;;;;;28.20;25.80;;;;;;;21.12;100.00;97005.60;109495;1287;139523;-91
2023/08/22 05:46:15;;;;;;;30.00;27.10;;;;;;;21.17;100.00;97001.70;109402;1291;22268;-91
2023/08/22 05:48:42;;;;;;;24.70;22.10;;;;;;;21.21;100.00;96994.95;109208;1291;139046;-90
2023/08/22 05:51:09;;;;;;;26.20;22.80;;;;;;;21.22;100.00;96988.15;109328;1284;22239;-91
2023/08/22 05:53:35;;;;;;;24.10;21.70;;;;;;;21.21;100.00;96986.91;109565;1286;22908;-91
2023/08/22 05:56:01;;;;;;;23.70;21.30;;;;;;;21.20;100.00;96992.70;109430;1290;138988;-91
2023/08/22 05:58:27;;;;;;;23.00;20.50;;;;;;;21.19;100.00;96997.20;109381;1291;22254;-91
2023/08/22 06:00:53;;;;;;;21.20;19.20;;;;;;;21.18;100.00;96995.59;109448;1285;139798;-91
2023/08/22 06:03:20;;;;;;;20.60;18.70;;;;;;;21.18;100.00;96996.44;109534;1289;22191;-91
2023/08/22 06:05:46;;;;;;;20.40;18.50;;;;;;;21.18;100.00;96996.77;109412;1290;22375;-91
2023/08/22 06:08:13;;;;;;;25.40;22.80;;;;;;;21.19;100.00;96992.55;109293;1284;137818;-91
2023/08/22 06:10:39;;;;;;;27.40;24.80;;;;;;;21.22;100.00;96997.77;109547;1283;22302;-90
2023/08/22 06:13:05;;;;;;;26.00;23.60;;;;;;;21.26;100.00;96996.40;109314;1291;138863;-91
2023/08/22 06:15:31;;;;;;;23.80;21.40;;;;;;;21.31;100.00;96992.09;109419;1287;22443;-91
2023/08/22 06:17:57;;;;;;;24.40;22.10;;;;;;;21.32;100.00;96994.89;109416;1291;22303;-91
2023/08/22 06:20:24;;;;;;;24.30;22.10;;;;;;;21.34;100.00;96991.92;109233;1289;139124;-91
2023/08/22 06:22:51;;;;;;;30.30;27.30;;;;;;;21.35;100.00;96990.45;109587;1289;22295;-91
2023/08/22 06:25:19;;;;;;;30.40;27.40;;;;;;;21.37;100.00;96986.36;109319;1284;138874;-91
2023/08/22 06:27:45;;;;;;;34.00;30.70;;;;;;;21.41;100.00;96984.73;109554;1289;22245;-91
2023/08/22 06:30:11;;;;;;;31.20;28.10;;;;;;;21.46;100.00;96984.41;109255;1291;139512;-91
2023/08/22 06:32:38;;;;;;;35.70;32.20;;;;;;;21.49;100.00;96982.01;109423;1291;22992;-91
2023/08/22 06:35:04;;;;;;;34.70;31.30;;;;;;;21.54;100.00;96978.08;109634;1287;22253;-92
2023/08/22 06:37:32;;;;;;;38.10;34.50;;;;;;;21.57;100.00;96976.80;109399;1290;138749;-92
2023/08/22 06:39:59;;;;;;;41.50;37.20;;;;;;;21.63;100.00;96978.73;109639;1285;22267;-92
2023/08/22 06:42:25;;;;;;;34.70;31.20;;;;;;;21.67;100.00;96975.13;109475;1283;139360;-91
2023/08/22 06:44:52;;;;;;;27.90;25.10;;;;;;;21.70;100.00;96976.71;109460;1285;22222;-92
2023/08/22 06:47:18;;;;;;;39.80;36.00;;;;;;;21.71;100.00;96977.16;109464;1287;22346;-91
2023/08/22 06:49:44;;;;;;;29.00;26.10;;;;;;;21.74;100.00;96977.21;109342;1290;138830;-91
2023/08/22 06:52:11;;;;;;;32.10;29.10;;;;;;;21.75;100.00;96976.54;109439;1287;22471;-91
2023/08/22 06:54:37;;;;;;;30.80;27.80;;;;;;;21.76;100.00;96976.71;109344;1287;139043;-91
2023/08/22 06:57:08;;;;;;;34.30;30.90;;;;;;;21.78;100.00;96972.40;109479;1291;22269;-91
2023/08/22 06:59:34;;;;;;;33.40;30.30;;;;;;;21.80;100.00;96975.41;109600;1289;22261;-91
2023/08/22 07:02:02;;;;;;;37.30;33.70;;;;;;;21.84;100.00;96980.52;109345;1290;139051;-91
2023/08/22 07:04:30;;;;;;;38.40;34.70;;;;;;;21.88;100.00;96981.31;109450;1283;22330;-91
2023/08/22 07:06:56;;;;;;;33.20;30.00;;;;;;;21.92;100.00;96982.01;109343;1291;138885;-91
2023/08/22 07:09:25;;;;;;;29.90;27.10;;;;;;;21.95;100.00;96980.79;109465;1283;22206;-91
2023/08/22 07:11:51;;;;;;;38.10;34.40;;;;;;;21.96;100.00;96978.83;109474;1291;22208;-92
2023/08/22 07:14:17;;;;;;;35.10;31.70;;;;;;;21.96;100.00;96980.17;109413;1290;139142;-91
2023/08/22 07:16:45;;;;;;;39.20;35.50;;;;;;;21.97;100.00;96979.03;109605;1283;22298;-91
2023/08/22 07:19:11;;;;;;;39.20;35.50;;;;;;;21.98;100.00;96981.39;109471;1288;139410;-90
2023/08/22 07:21:37;;;;;;;39.60;35.60;;;;;;;22.02;100.00;96976.58;109573;1290;22969;-92
2023/08/22 07:24:04;;;;;;;36.50;33.00;;;;;;;22.06;100.00;96976.55;109561;1286;22386;-91
2023/08/22 07:26:30;;;;;;;35.70;32.20;;;;;;;22.10;100.00;96983.30;109414;1290;138652;-91
2023/08/22 07:28:57;;;;;;;36.20;32.60;;;;;;;22.13;100.00;96985.47;109457;1287;22123;-91
2023/08/22 07:31:28;;;;;;;36.60;33.10;;;;;;;22.16;100.00;96990.34;109503;1283;138887;-91
2023/08/22 07:33:54;;;;;;;34.90;31.40;;;;;;;22.18;100.00;96998.05;109589;1286;22310;-91
2023/08/22 07:36:21;;;;;;;38.10;34.30;;;;;;;22.21;100.00;96997.61;109537;1289;138831;-91
2023/08/22 07:38:47;;;;;;;38.40;34.80;;;;;;;22.25;100.00;96996.55;109515;1290;22264;-90
2023/08/22 07:41:13;;;;;;;37.60;33.80;;;;;;;22.28;100.00;96997.80;109543;1290;22626;-92
2023/08/22 07:43:40;;;;;;;40.30;36.30;;;;;;;22.32;100.00;97000.16;109482;1283;138960;-91
2023/08/22 07:46:07;;;;;;;44.50;40.10;;;;;;;22.36;100.00;97001.66;109532;1283;22336;-91
2023/08/22 07:48:33;;;;;;;39.90;35.80;;;;;;;22.40;100.00;96996.79;109508;1289;139503;-91
2023/08/22 07:51:00;;;;;;;40.30;36.20;;;;;;;22.43;100.00;96997.73;109466;1290;23023;-91
2023/08/22 07:53:26;;;;;;;44.50;40.00;;;;;;;22.47;100.00;96999.92;109536;1291;22144;-91
2023/08/22 07:55:52;;;;;;;38.90;34.80;;;;;;;22.52;100.00;96996.77;109482;1286;138897;-92
2023/08/22 07:58:20;;;;;;;38.10;34.50;;;;;;;22.57;100.00;96996.94;109681;1286;22197;-91
2023/08/22 08:00:47;;;;;;;37.40;33.60;;;;;;;22.59;100.00;96994.75;109524;1276;138879;-90
2023/08/22 08:03:15;;;;;;;39.30;35.30;;;;;;;22.61;100.00;96990.15;109526;1290;22929;-91
2023/08/22 08:05:42;;;;;;;39.20;35.30;;;;;;;22.63;100.00;96989.36;109538;1288;22873;-92
2023/08/22 08:08:08;;;;;;;37.30;33.40;;;;;;;22.69;100.00;96987.73;109361;1290;138714;-91
2023/08/22 08:10:35;;;;;;;33.10;29.80;;;;;;;22.74;100.00;96985.31;109577;1288;23026;-92
2023/08/22 08:13:02;;;;;;;32.20;29.10;;;;;;;22.76;100.00;96987.61;109401;1290;138749;-90
2023/08/22 08:15:29;;;;;;;31.70;28.80;;;;;;;22.79;100.00;96982.75;109542;1291;22159;-91
2023/08/22 08:17:58;;;;;;;33.90;30.70;;;;;;;22.84;100.00;96984.69;109581;1290;22243;-91
2023/08/22 08:20:25;;;;;;;32.40;29.30;;;;;;;22.88;100.00;96984.48;109584;1289;138888;-91
2023/08/22 08:22:51;;;;;;;30.10;27.20;;;;;;;22.92;100.00;96985.84;109474;1287;22212;-91
2023/08/22 08:25:17;;;;;;;26.80;24.20;;;;;;;22.95;100.00;96986.65;109512;1284;138730;-91
2023/08/22 08:27:44;;;;;;;29.20;26.30;;;;;;;22.98;100.00;96985.63;109685;1289;22197;-92
2023/08/22 08:30:11;;;;;;;29.30;26.70;;;;;;;23.01;100.00;96984.23;109455;1286;139625;-90
2023/08/22 08:32:37;;;;;;;29.40;26.80;;;;;;;23.04;100.00;96978.54;109530;1283;22885;-91
2023/08/22 08:35:04;;;;;;;30.60;27.50;;;;;;;23.09;100.00;96978.42;109660;1289;22096;-91
2023/08/22 08:37:31;;;;;;;28.00;25.20;;;;;;;23.11;100.00;96980.12;109473;1289;138668;-92
2023/08/22 08:39:57;;;;;;;28.80;26.00;;;;;;;23.14;100.00;96978.72;109601;1288;22215;-92
2023/08/22 08:42:24;;;;;;;26.90;24.30;;;;;;;23.16;100.00;96981.08;109469;1287;139309;-92
2023/08/22 08:44:51;;;;;;;23.70;20.20;;;;;;;23.18;100.00;96979.44;109509;1287;23101;-92
2023/08/22 08:47:18;;;;;;;24.60;22.30;;;;;;;23.20;100.00;96975.91;109594;1289;22238;-92
2023/08/22 08:49:45;;;;;;;25.20;22.90;;;;;;;23.23;100.00;96976.42;109521;1286;139133;-92
2023/08/22 08:52:12;;;;;;;25.30;22.90;;;;;;;23.25;100.00;96974.44;109567;1289;23198;-92
2023/08/22 08:54:39;;;;;;;27.40;25.00;;;;;;;23.28;100.00;96973.42;109442;1289;139424;-90
2023/08/22 08:57:05;;;;;;;25.90;23.50;;;;;;;23.30;100.00;96971.48;109562;1286;22908;-91
2023/08/22 08:59:31;;;;;;;25.20;22.90;;;;;;;23.31;100.00;96970.85;109581;1290;23059;-92
2023/08/22 09:01:57;;;;;;;26.00;23.60;;;;;;;23.30;100.00;96968.52;109520;1280;139390;-90
2023/08/22 09:04:23;;;;;;;26.90;24.40;;;;;;;23.33;100.00;96966.53;109474;1286;22233;-91
2023/08/22 09:06:50;;;;;;;28.80;25.80;;;;;;;23.37;100.00;96963.54;109460;1290;138930;-91
2023/08/22 09:09:17;;;;;;;28.10;25.50;;;;;;;23.44;100.00;96964.90;109560;1283;22256;-91
2023/08/22 09:11:47;;;;;;;28.90;26.10;;;;;;;23.52;100.00;96966.62;109563;1289;22220;-92
2023/08/22 09:14:20;;;;;;;26.70;24.30;;;;;;;23.56;100.00;96967.14;109451;1286;138772;-91
2023/08/22 09:16:50;;;;;;;25.00;22.70;;;;;;;23.60;100.00;96964.98;109611;1283;22218;-91
2023/08/22 09:19:17;;;;;;;25.30;23.00;;;;;;;23.63;100.00;96965.83;109556;1287;138784;-92
2023/08/22 09:22:00;;;;;;;27.10;24.40;;;;;;;23.65;100.00;96964.94;109520;1289;22252;-92
2023/08/22 09:24:27;;;;;;;25.40;23.10;;;;;;;23.65;100.00;96964.41;109406;1287;139289;-92
2023/08/22 09:26:53;;;;;;;28.30;25.70;;;;;;;23.64;100.00;96965.30;109509;1289;22248;-92
2023/08/22 09:29:32;;;;;;;25.70;23.30;;;;;;;23.65;100.00;96961.44;109734;1289;22263;-91
2023/08/22 09:32:02;;;;;;;28.10;25.40;;;;;;;23.67;100.00;96959.96;109333;1290;138880;-92
2023/08/22 09:34:29;;;;;;;27.50;25.00;;;;;;;23.69;100.00;96960.30;109630;1283;22253;-92
2023/08/22 09:36:57;;;;;;;27.20;24.60;;;;;;;23.73;100.00;96957.41;109412;1286;138686;-91
2023/08/22 09:39:24;;;;;;;27.00;24.50;;;;;;;23.74;100.00;96954.61;109491;1283;22284;-92
2023/08/22 09:41:52;;;;;;;28.50;25.80;;;;;;;23.74;100.00;96958.90;109379;1283;22214;-92
2023/08/22 09:44:25;;;;;;;27.50;24.90;;;;;;;23.75;100.00;96957.89;109426;1286;138847;-92
2023/08/22 09:46:54;;;;;;;28.20;25.50;;;;;;;23.76;100.00;96954.12;109581;1291;22198;-92
2023/08/22 09:49:22;;;;;;;30.80;27.80;;;;;;;23.75;100.00;96951.70;109460;1283;138856;-91
2023/08/22 09:51:53;;;;;;;29.20;26.40;;;;;;;23.72;100.00;96954.43;109590;1285;22182;-91
2023/08/22 09:54:20;;;;;;;29.80;26.90;;;;;;;23.70;100.00;96953.56;109466;1289;137871;-91
2023/08/22 09:56:48;;;;;;;28.70;26.00;;;;;;;23.71;100.00;96943.42;109601;1287;22154;-92
2023/08/22 09:59:34;;;;;;;27.30;24.70;;;;;;;23.75;100.00;96945.54;109641;1290;22913;-92
2023/08/22 10:02:02;;;;;;;29.40;26.50;;;;;;;23.77;100.00;96943.29;109480;1286;138816;-92
2023/08/22 10:04:32;;;;;;;28.70;26.10;;;;;;;23.80;100.00;96938.54;109637;1290;23111;-91
2023/08/22 10:06:59;;;;;;;25.90;23.50;;;;;;;23.81;100.00;96937.16;109500;1286;138947;-92
2023/08/22 10:09:27;;;;;;;28.10;25.50;;;;;;;23.82;100.00;96935.27;109582;1286;22325;-92
2023/08/22 10:11:55;;;;;;;27.60;25.20;;;;;;;23.88;100.00;96934.67;109569;1289;22999;-91
2023/08/22 10:14:38;;;;;;;27.40;24.80;;;;;;;23.97;100.00;96934.49;109430;1286;139040;-91
2023/08/22 10:17:06;;;;;;;25.20;22.90;;;;;;;24.06;100.00;96932.80;109608;1283;23152;-92
2023/08/22 10:19:32;;;;;;;25.20;22.90;;;;;;;24.15;100.00;96930.70;109482;1290;139079;-91
2023/08/22 10:22:06;;;;;;;25.50;23.20;;;;;;;24.21;100.00;96931.59;109642;1290;22685;-92
2023/08/22 10:24:32;;;;;;;25.10;22.70;;;;;;;24.28;100.00;96929.06;109506;1283;138797;-91
2023/08/22 10:27:12;;;;;;;25.00;22.50;;;;;;;24.33;100.00;96927.83;109532;1286;22211;-91
2023/08/22 10:29:46;;;;;;;25.10;22.70;;;;;;;24.38;100.00;96925.09;109627;1290;22206;-91
2023/08/22 10:32:12;;;;;;;23.70;21.60;;;;;;;24.42;100.00;96922.64;109475;1289;138693;-91
2023/08/22 10:34:40;;;;;;;22.60;20.50;;;;;;;24.46;100.00;96916.70;109742;1282;22154;-92
2023/08/22 10:37:27;;;;;;;23.60;20.10;;;;;;;24.49;100.00;96915.70;109598;1290;139073;-91
2023/08/22 10:40:43;;;;;;;23.50;21.20;;;;;;;24.53;100.00;96918.33;109594;1289;22226;-92
2023/08/22 10:43:11;;;;;;;22.60;20.50;;;;;;;24.61;100.00;96916.89;109494;1287;139651;-92
2023/08/22 10:45:54;;;;;;;22.30;20.30;;;;;;;24.67;100.00;96911.70;109583;1286;22373;-92
2023/08/22 10:48:21;;;;;;;22.20;20.10;;;;;;;24.73;100.00;96909.60;109469;1290;139265;-93
2023/08/22 10:50:49;;;;;;;20.70;18.90;;;;;;;24.78;100.00;96907.73;109586;1285;22221;-92
2023/08/22 10:53:18;;;;;;;21.30;19.30;;;;;;;24.80;100.00;96907.84;109634;1284;22129;-92
2023/08/22 10:55:54;;;;;;;21.60;18.30;;;;;;;24.84;100.00;96908.33;109478;1286;139325;-92
2023/08/22 10:58:41;;;;;;;22.00;20.00;;;;;;;24.89;100.00;96903.56;109581;1286;22208;-92
2023/08/22 11:01:13;;;;;;;20.10;18.20;;;;;;;24.91;100.00;96904.34;109420;1289;138713;-92